sensor_id;sensor_type;location;lat;lon;timestamp;P1;durP1;ratioP1;P2;durP2;ratioP2
67063;SDS011;58476;48.072;11.970;2023-08-21T00:01:33;9.90;;;4.70;;
67063;SDS011;58476;48.072;11.970;2023-08-21T00:03:58;7.25;;;4.35;;
67063;SDS011;58476;48.072;11.970;2023-08-21T00:06:24;6.05;;;4.53;;
67063;SDS011;58476;48.072;11.970;2023-08-21T00:08:49;9.00;;;4.78;;
67063;SDS011;58476;48.072;11.970;2023-08-21T00:11:15;7.25;;;4.45;;
67063;SDS011;58476;48.072;11.970;2023-08-21T00:13:40;6.78;;;4.10;;
67063;SDS011;58476;48.072;11.970;2023-08-21T00:16:06;6.50;;;4.28;;
67063;SDS011;58476;48.072;11.970;2023-08-21T00:18:31;7.47;;;3.90;;
67063;SDS011;58476;48.072;11.970;2023-08-21T00:20:56;5.97;;;4.20;;
67063;SDS011;58476;48.072;11.970;2023-08-21T00:23:22;4.57;;;3.70;;
67063;SDS011;58476;48.072;11.970;2023-08-21T00:25:47;6.43;;;4.53;;
67063;SDS011;58476;48.072;11.970;2023-08-21T00:28:13;7.82;;;3.90;;
67063;SDS011;58476;48.072;11.970;2023-08-21T00:30:39;6.10;;;4.30;;
67063;SDS011;58476;48.072;11.970;2023-08-21T00:33:04;8.32;;;4.47;;
67063;SDS011;58476;48.072;11.970;2023-08-21T00:35:30;5.90;;;4.38;;
67063;SDS011;58476;48.072;11.970;2023-08-21T00:37:55;7.13;;;4.45;;
67063;SDS011;58476;48.072;11.970;2023-08-21T00:40:20;6.07;;;4.15;;
67063;SDS011;58476;48.072;11.970;2023-08-21T00:42:46;7.95;;;4.32;;
67063;SDS011;58476;48.072;11.970;2023-08-21T00:45:11;5.93;;;4.13;;
67063;SDS011;58476;48.072;11.970;2023-08-21T00:47:36;6.13;;;4.10;;
67063;SDS011;58476;48.072;11.970;2023-08-21T00:50:02;7.35;;;4.00;;
67063;SDS011;58476;48.072;11.970;2023-08-21T00:52:30;5.88;;;4.40;;
67063;SDS011;58476;48.072;11.970;2023-08-21T00:54:56;5.20;;;4.13;;
67063;SDS011;58476;48.072;11.970;2023-08-21T00:57:22;5.63;;;3.67;;
67063;SDS011;58476;48.072;11.970;2023-08-21T00:59:48;6.03;;;4.03;;
67063;SDS011;58476;48.072;11.970;2023-08-21T01:02:14;5.47;;;4.38;;
67063;SDS011;58476;48.072;11.970;2023-08-21T01:04:40;5.18;;;4.18;;
67063;SDS011;58476;48.072;11.970;2023-08-21T01:07:05;6.68;;;4.40;;
67063;SDS011;58476;48.072;11.970;2023-08-21T01:09:33;5.47;;;3.97;;
67063;SDS011;58476;48.072;11.970;2023-08-21T01:12:22;5.47;;;4.10;;
67063;SDS011;58476;48.072;11.970;2023-08-21T01:15:02;6.95;;;4.35;;
67063;SDS011;58476;48.072;11.970;2023-08-21T01:17:31;5.28;;;4.10;;
67063;SDS011;58476;48.072;11.970;2023-08-21T01:20:00;5.07;;;4.20;;
67063;SDS011;58476;48.072;11.970;2023-08-21T01:22:26;5.50;;;4.30;;
67063;SDS011;58476;48.072;11.970;2023-08-21T01:24:52;7.45;;;4.40;;
67063;SDS011;58476;48.072;11.970;2023-08-21T01:27:19;6.30;;;4.82;;
67063;SDS011;58476;48.072;11.970;2023-08-21T01:29:44;6.82;;;4.28;;
67063;SDS011;58476;48.072;11.970;2023-08-21T01:32:13;5.38;;;4.18;;
67063;SDS011;58476;48.072;11.970;2023-08-21T01:34:42;6.57;;;4.35;;
67063;SDS011;58476;48.072;11.970;2023-08-21T01:37:08;5.40;;;4.20;;
67063;SDS011;58476;48.072;11.970;2023-08-21T01:39:35;5.72;;;4.30;;
67063;SDS011;58476;48.072;11.970;2023-08-21T01:42:00;5.68;;;4.22;;
67063;SDS011;58476;48.072;11.970;2023-08-21T01:44:26;5.00;;;4.13;;
67063;SDS011;58476;48.072;11.970;2023-08-21T01:46:51;4.85;;;4.22;;
67063;SDS011;58476;48.072;11.970;2023-08-21T01:49:16;8.05;;;4.65;;
67063;SDS011;58476;48.072;11.970;2023-08-21T01:51:42;5.45;;;4.20;;
67063;SDS011;58476;48.072;11.970;2023-08-21T01:54:07;5.93;;;4.50;;
67063;SDS011;58476;48.072;11.970;2023-08-21T01:56:32;5.80;;;4.32;;
67063;SDS011;58476;48.072;11.970;2023-08-21T01:58:58;5.25;;;4.15;;
67063;SDS011;58476;48.072;11.970;2023-08-21T02:01:23;5.82;;;4.35;;
67063;SDS011;58476;48.072;11.970;2023-08-21T02:03:48;5.22;;;4.10;;
67063;SDS011;58476;48.072;11.970;2023-08-21T02:06:13;5.68;;;4.15;;
67063;SDS011;58476;48.072;11.970;2023-08-21T02:08:39;5.13;;;4.15;;
67063;SDS011;58476;48.072;11.970;2023-08-21T02:11:04;5.22;;;4.20;;
67063;SDS011;58476;48.072;11.970;2023-08-21T02:13:29;5.53;;;4.07;;
67063;SDS011;58476;48.072;11.970;2023-08-21T02:15:55;4.75;;;3.90;;
67063;SDS011;58476;48.072;11.970;2023-08-21T02:18:20;7.60;;;4.45;;
67063;SDS011;58476;48.072;11.970;2023-08-21T02:20:46;5.45;;;4.50;;
67063;SDS011;58476;48.072;11.970;2023-08-21T02:23:12;5.38;;;4.10;;
67063;SDS011;58476;48.072;11.970;2023-08-21T02:25:37;5.78;;;4.25;;
67063;SDS011;58476;48.072;11.970;2023-08-21T02:28:03;5.22;;;4.10;;
67063;SDS011;58476;48.072;11.970;2023-08-21T02:30:28;6.25;;;4.13;;
67063;SDS011;58476;48.072;11.970;2023-08-21T02:32:55;10.57;;;4.38;;
67063;SDS011;58476;48.072;11.970;2023-08-21T02:35:21;5.13;;;4.10;;
67063;SDS011;58476;48.072;11.970;2023-08-21T02:37:46;5.25;;;4.05;;
67063;SDS011;58476;48.072;11.970;2023-08-21T02:40:12;8.43;;;5.05;;
67063;SDS011;58476;48.072;11.970;2023-08-21T02:42:37;5.45;;;4.10;;
67063;SDS011;58476;48.072;11.970;2023-08-21T02:45:03;5.88;;;4.10;;
67063;SDS011;58476;48.072;11.970;2023-08-21T02:47:29;9.05;;;4.22;;
67063;SDS011;58476;48.072;11.970;2023-08-21T02:49:55;8.25;;;4.10;;
67063;SDS011;58476;48.072;11.970;2023-08-21T02:52:21;8.13;;;4.50;;
67063;SDS011;58476;48.072;11.970;2023-08-21T02:54:46;5.75;;;4.20;;
67063;SDS011;58476;48.072;11.970;2023-08-21T02:57:12;9.50;;;4.80;;
67063;SDS011;58476;48.072;11.970;2023-08-21T02:59:37;5.68;;;4.35;;
67063;SDS011;58476;48.072;11.970;2023-08-21T03:02:02;8.70;;;4.20;;
67063;SDS011;58476;48.072;11.970;2023-08-21T03:04:28;7.32;;;4.10;;
67063;SDS011;58476;48.072;11.970;2023-08-21T03:06:53;6.82;;;4.30;;
67063;SDS011;58476;48.072;11.970;2023-08-21T03:09:18;7.80;;;4.07;;
67063;SDS011;58476;48.072;11.970;2023-08-21T03:11:44;8.77;;;4.32;;
67063;SDS011;58476;48.072;11.970;2023-08-21T03:14:09;7.38;;;4.03;;
67063;SDS011;58476;48.072;11.970;2023-08-21T03:16:34;6.65;;;4.50;;
67063;SDS011;58476;48.072;11.970;2023-08-21T03:19:00;7.25;;;4.10;;
67063;SDS011;58476;48.072;11.970;2023-08-21T03:21:28;9.48;;;4.25;;
67063;SDS011;58476;48.072;11.970;2023-08-21T03:23:55;11.23;;;4.50;;
67063;SDS011;58476;48.072;11.970;2023-08-21T03:26:23;8.18;;;4.10;;
67063;SDS011;58476;48.072;11.970;2023-08-21T03:28:49;6.75;;;4.43;;
67063;SDS011;58476;48.072;11.970;2023-08-21T03:31:14;4.97;;;3.90;;
67063;SDS011;58476;48.072;11.970;2023-08-21T03:33:40;9.50;;;4.28;;
67063;SDS011;58476;48.072;11.970;2023-08-21T03:36:06;5.13;;;4.07;;
67063;SDS011;58476;48.072;11.970;2023-08-21T03:38:32;6.53;;;4.13;;
67063;SDS011;58476;48.072;11.970;2023-08-21T03:40:57;7.10;;;4.32;;
67063;SDS011;58476;48.072;11.970;2023-08-21T03:43:24;6.05;;;4.18;;
67063;SDS011;58476;48.072;11.970;2023-08-21T03:45:49;6.68;;;4.20;;
67063;SDS011;58476;48.072;11.970;2023-08-21T03:48:16;6.05;;;4.15;;
67063;SDS011;58476;48.072;11.970;2023-08-21T03:50:42;8.93;;;4.68;;
67063;SDS011;58476;48.072;11.970;2023-08-21T03:53:07;5.70;;;4.00;;
67063;SDS011;58476;48.072;11.970;2023-08-21T03:55:33;8.00;;;4.47;;
67063;SDS011;58476;48.072;11.970;2023-08-21T03:57:58;9.43;;;4.55;;
67063;SDS011;58476;48.072;11.970;2023-08-21T04:00:24;9.40;;;4.60;;
67063;SDS011;58476;48.072;11.970;2023-08-21T04:02:49;11.45;;;4.75;;
67063;SDS011;58476;48.072;11.970;2023-08-21T04:05:15;15.30;;;5.10;;
67063;SDS011;58476;48.072;11.970;2023-08-21T04:07:40;16.90;;;5.45;;
67063;SDS011;58476;48.072;11.970;2023-08-21T04:10:06;12.90;;;4.82;;
67063;SDS011;58476;48.072;11.970;2023-08-21T04:12:32;15.55;;;4.90;;
67063;SDS011;58476;48.072;11.970;2023-08-21T04:14:57;11.75;;;4.75;;
67063;SDS011;58476;48.072;11.970;2023-08-21T04:17:23;14.57;;;5.28;;
67063;SDS011;58476;48.072;11.970;2023-08-21T04:19:50;19.80;;;4.80;;
67063;SDS011;58476;48.072;11.970;2023-08-21T04:22:16;12.32;;;4.32;;
67063;SDS011;58476;48.072;11.970;2023-08-21T04:24:41;16.55;;;4.88;;
67063;SDS011;58476;48.072;11.970;2023-08-21T04:27:07;16.40;;;5.55;;
67063;SDS011;58476;48.072;11.970;2023-08-21T04:29:33;32.05;;;4.97;;
67063;SDS011;58476;48.072;11.970;2023-08-21T04:31:58;20.13;;;5.00;;
67063;SDS011;58476;48.072;11.970;2023-08-21T04:34:23;23.23;;;4.97;;
67063;SDS011;58476;48.072;11.970;2023-08-21T04:36:49;19.98;;;5.22;;
67063;SDS011;58476;48.072;11.970;2023-08-21T04:39:14;16.20;;;5.00;;
67063;SDS011;58476;48.072;11.970;2023-08-21T04:41:40;24.23;;;5.50;;
67063;SDS011;58476;48.072;11.970;2023-08-21T04:44:07;24.77;;;6.03;;
67063;SDS011;58476;48.072;11.970;2023-08-21T04:46:32;21.65;;;5.55;;
67063;SDS011;58476;48.072;11.970;2023-08-21T04:48:58;26.17;;;5.50;;
67063;SDS011;58476;48.072;11.970;2023-08-21T04:51:24;20.48;;;5.25;;
67063;SDS011;58476;48.072;11.970;2023-08-21T04:53:49;20.00;;;4.68;;
67063;SDS011;58476;48.072;11.970;2023-08-21T04:56:18;21.58;;;4.80;;
67063;SDS011;58476;48.072;11.970;2023-08-21T04:58:43;19.85;;;4.60;;
67063;SDS011;58476;48.072;11.970;2023-08-21T05:01:08;20.65;;;5.28;;
67063;SDS011;58476;48.072;11.970;2023-08-21T05:03:37;19.30;;;4.93;;
67063;SDS011;58476;48.072;11.970;2023-08-21T05:06:03;22.75;;;5.30;;
67063;SDS011;58476;48.072;11.970;2023-08-21T05:08:29;28.77;;;5.60;;
67063;SDS011;58476;48.072;11.970;2023-08-21T05:10:55;18.05;;;4.88;;
67063;SDS011;58476;48.072;11.970;2023-08-21T05:13:22;14.02;;;6.03;;
67063;SDS011;58476;48.072;11.970;2023-08-21T05:18:19;16.92;;;4.72;;
67063;SDS011;58476;48.072;11.970;2023-08-21T05:20:46;15.10;;;4.72;;
67063;SDS011;58476;48.072;11.970;2023-08-21T05:23:12;17.08;;;4.97;;
67063;SDS011;58476;48.072;11.970;2023-08-21T05:25:37;17.00;;;4.55;;
67063;SDS011;58476;48.072;11.970;2023-08-21T05:28:03;22.40;;;5.43;;
67063;SDS011;58476;48.072;11.970;2023-08-21T05:30:28;16.73;;;5.13;;
67063;SDS011;58476;48.072;11.970;2023-08-21T05:32:54;12.77;;;5.85;;
67063;SDS011;58476;48.072;11.970;2023-08-21T05:35:19;12.73;;;5.90;;
67063;SDS011;58476;48.072;11.970;2023-08-21T05:37:45;12.73;;;7.13;;
67063;SDS011;58476;48.072;11.970;2023-08-21T05:40:10;11.00;;;6.30;;
67063;SDS011;58476;48.072;11.970;2023-08-21T05:42:36;8.48;;;5.55;;
67063;SDS011;58476;48.072;11.970;2023-08-21T05:45:01;9.77;;;6.20;;
67063;SDS011;58476;48.072;11.970;2023-08-21T05:47:29;11.50;;;6.07;;
67063;SDS011;58476;48.072;11.970;2023-08-21T05:49:55;7.40;;;5.30;;
67063;SDS011;58476;48.072;11.970;2023-08-21T05:52:21;8.63;;;5.70;;
67063;SDS011;58476;48.072;11.970;2023-08-21T05:54:46;8.57;;;6.10;;
67063;SDS011;58476;48.072;11.970;2023-08-21T05:57:12;12.98;;;6.22;;
67063;SDS011;58476;48.072;11.970;2023-08-21T05:59:42;9.15;;;6.18;;
67063;SDS011;58476;48.072;11.970;2023-08-21T06:02:09;8.10;;;5.80;;
67063;SDS011;58476;48.072;11.970;2023-08-21T06:04:34;12.38;;;6.70;;
67063;SDS011;58476;48.072;11.970;2023-08-21T06:07:01;8.98;;;6.03;;
67063;SDS011;58476;48.072;11.970;2023-08-21T06:09:26;9.00;;;6.40;;
67063;SDS011;58476;48.072;11.970;2023-08-21T06:11:52;10.70;;;6.18;;
67063;SDS011;58476;48.072;11.970;2023-08-21T06:14:17;10.38;;;5.90;;
67063;SDS011;58476;48.072;11.970;2023-08-21T06:16:43;10.10;;;5.80;;
67063;SDS011;58476;48.072;11.970;2023-08-21T06:19:08;8.15;;;5.80;;
67063;SDS011;58476;48.072;11.970;2023-08-21T06:21:33;13.65;;;5.88;;
67063;SDS011;58476;48.072;11.970;2023-08-21T06:23:59;10.10;;;5.93;;
67063;SDS011;58476;48.072;11.970;2023-08-21T06:26:24;10.27;;;6.30;;
67063;SDS011;58476;48.072;11.970;2023-08-21T06:28:50;11.13;;;5.88;;
67063;SDS011;58476;48.072;11.970;2023-08-21T06:31:17;12.35;;;6.22;;
67063;SDS011;58476;48.072;11.970;2023-08-21T06:33:42;9.52;;;6.20;;
67063;SDS011;58476;48.072;11.970;2023-08-21T06:36:08;11.68;;;6.07;;
67063;SDS011;58476;48.072;11.970;2023-08-21T06:38:33;11.93;;;5.78;;
67063;SDS011;58476;48.072;11.970;2023-08-21T06:40:58;13.43;;;6.10;;
67063;SDS011;58476;48.072;11.970;2023-08-21T06:43:24;13.70;;;5.50;;
67063;SDS011;58476;48.072;11.970;2023-08-21T06:45:50;10.73;;;5.35;;
67063;SDS011;58476;48.072;11.970;2023-08-21T06:48:15;11.40;;;5.80;;
67063;SDS011;58476;48.072;11.970;2023-08-21T06:50:40;10.57;;;5.70;;
67063;SDS011;58476;48.072;11.970;2023-08-21T06:53:06;13.88;;;5.97;;
67063;SDS011;58476;48.072;11.970;2023-08-21T06:55:31;18.40;;;6.78;;
67063;SDS011;58476;48.072;11.970;2023-08-21T06:57:56;10.40;;;5.38;;
67063;SDS011;58476;48.072;11.970;2023-08-21T07:00:22;12.60;;;5.90;;
67063;SDS011;58476;48.072;11.970;2023-08-21T07:02:47;10.65;;;5.68;;
67063;SDS011;58476;48.072;11.970;2023-08-21T07:05:13;10.98;;;5.40;;
67063;SDS011;58476;48.072;11.970;2023-08-21T07:07:38;9.70;;;5.28;;
67063;SDS011;58476;48.072;11.970;2023-08-21T07:10:03;9.27;;;5.57;;
67063;SDS011;58476;48.072;11.970;2023-08-21T07:12:29;15.50;;;5.93;;
67063;SDS011;58476;48.072;11.970;2023-08-21T07:14:54;12.85;;;5.57;;
67063;SDS011;58476;48.072;11.970;2023-08-21T07:17:19;13.57;;;6.05;;
67063;SDS011;58476;48.072;11.970;2023-08-21T07:19:45;10.23;;;5.65;;
67063;SDS011;58476;48.072;11.970;2023-08-21T07:22:10;7.63;;;5.22;;
67063;SDS011;58476;48.072;11.970;2023-08-21T07:24:35;11.20;;;5.50;;
67063;SDS011;58476;48.072;11.970;2023-08-21T07:27:01;9.43;;;5.25;;
67063;SDS011;58476;48.072;11.970;2023-08-21T07:29:26;8.60;;;5.07;;
67063;SDS011;58476;48.072;11.970;2023-08-21T07:31:51;10.07;;;5.43;;
67063;SDS011;58476;48.072;11.970;2023-08-21T07:34:17;9.63;;;4.70;;
67063;SDS011;58476;48.072;11.970;2023-08-21T07:36:42;7.70;;;4.60;;
67063;SDS011;58476;48.072;11.970;2023-08-21T07:39:07;8.23;;;4.60;;
67063;SDS011;58476;48.072;11.970;2023-08-21T07:41:33;8.45;;;4.68;;
67063;SDS011;58476;48.072;11.970;2023-08-21T07:43:58;11.32;;;5.38;;
67063;SDS011;58476;48.072;11.970;2023-08-21T07:46:24;10.48;;;5.00;;
67063;SDS011;58476;48.072;11.970;2023-08-21T07:48:49;10.43;;;5.43;;
67063;SDS011;58476;48.072;11.970;2023-08-21T07:51:15;9.13;;;4.60;;
67063;SDS011;58476;48.072;11.970;2023-08-21T07:53:40;10.43;;;5.13;;
67063;SDS011;58476;48.072;11.970;2023-08-21T07:56:06;11.10;;;5.30;;
67063;SDS011;58476;48.072;11.970;2023-08-21T07:58:31;9.85;;;4.88;;
67063;SDS011;58476;48.072;11.970;2023-08-21T08:00:58;9.93;;;4.95;;
67063;SDS011;58476;48.072;11.970;2023-08-21T08:03:23;12.02;;;4.70;;
67063;SDS011;58476;48.072;11.970;2023-08-21T08:05:49;8.73;;;4.93;;
67063;SDS011;58476;48.072;11.970;2023-08-21T08:08:16;9.20;;;4.68;;
67063;SDS011;58476;48.072;11.970;2023-08-21T08:10:42;10.75;;;4.55;;
67063;SDS011;58476;48.072;11.970;2023-08-21T08:13:07;9.65;;;4.68;;
67063;SDS011;58476;48.072;11.970;2023-08-21T08:15:33;7.43;;;4.50;;
67063;SDS011;58476;48.072;11.970;2023-08-21T08:17:59;8.10;;;4.90;;
67063;SDS011;58476;48.072;11.970;2023-08-21T08:20:24;8.40;;;4.63;;
67063;SDS011;58476;48.072;11.970;2023-08-21T08:22:50;7.38;;;4.30;;
67063;SDS011;58476;48.072;11.970;2023-08-21T08:25:16;10.32;;;4.60;;
67063;SDS011;58476;48.072;11.970;2023-08-21T08:27:41;10.45;;;4.80;;
67063;SDS011;58476;48.072;11.970;2023-08-21T08:30:06;9.00;;;4.88;;
67063;SDS011;58476;48.072;11.970;2023-08-21T08:32:32;7.32;;;4.80;;
67063;SDS011;58476;48.072;11.970;2023-08-21T08:34:57;7.50;;;4.50;;
67063;SDS011;58476;48.072;11.970;2023-08-21T08:37:23;11.00;;;4.32;;
67063;SDS011;58476;48.072;11.970;2023-08-21T08:39:48;16.42;;;5.80;;
67063;SDS011;58476;48.072;11.970;2023-08-21T08:42:14;19.20;;;4.93;;
67063;SDS011;58476;48.072;11.970;2023-08-21T08:44:40;12.10;;;5.05;;
67063;SDS011;58476;48.072;11.970;2023-08-21T08:47:10;16.80;;;5.45;;
67063;SDS011;58476;48.072;11.970;2023-08-21T08:49:39;21.27;;;5.03;;
67063;SDS011;58476;48.072;11.970;2023-08-21T08:52:04;16.27;;;4.90;;
67063;SDS011;58476;48.072;11.970;2023-08-21T08:54:30;14.15;;;5.30;;
67063;SDS011;58476;48.072;11.970;2023-08-21T08:56:56;23.13;;;5.00;;
67063;SDS011;58476;48.072;11.970;2023-08-21T08:59:22;33.53;;;6.65;;
67063;SDS011;58476;48.072;11.970;2023-08-21T09:01:47;18.73;;;5.35;;
67063;SDS011;58476;48.072;11.970;2023-08-21T09:04:13;17.13;;;5.05;;
67063;SDS011;58476;48.072;11.970;2023-08-21T09:06:38;18.98;;;4.60;;
67063;SDS011;58476;48.072;11.970;2023-08-21T09:09:04;16.88;;;5.05;;
67063;SDS011;58476;48.072;11.970;2023-08-21T09:11:30;9.77;;;4.53;;
67063;SDS011;58476;48.072;11.970;2023-08-21T09:13:57;20.38;;;5.10;;
67063;SDS011;58476;48.072;11.970;2023-08-21T09:16:23;16.88;;;5.05;;
67063;SDS011;58476;48.072;11.970;2023-08-21T09:18:56;13.90;;;4.78;;
67063;SDS011;58476;48.072;11.970;2023-08-21T09:21:22;22.02;;;6.07;;
67063;SDS011;58476;48.072;11.970;2023-08-21T09:23:49;15.77;;;4.72;;
67063;SDS011;58476;48.072;11.970;2023-08-21T09:26:21;20.17;;;5.00;;
67063;SDS011;58476;48.072;11.970;2023-08-21T09:28:50;23.13;;;5.40;;
67063;SDS011;58476;48.072;11.970;2023-08-21T09:31:21;15.10;;;5.20;;
67063;SDS011;58476;48.072;11.970;2023-08-21T09:33:57;29.30;;;5.53;;
67063;SDS011;58476;48.072;11.970;2023-08-21T09:36:24;30.58;;;5.55;;
67063;SDS011;58476;48.072;11.970;2023-08-21T09:38:50;19.55;;;4.93;;
67063;SDS011;58476;48.072;11.970;2023-08-21T09:41:18;18.20;;;4.90;;
67063;SDS011;58476;48.072;11.970;2023-08-21T09:43:44;22.02;;;5.72;;
67063;SDS011;58476;48.072;11.970;2023-08-21T09:46:10;38.55;;;6.13;;
67063;SDS011;58476;48.072;11.970;2023-08-21T09:48:39;22.05;;;5.20;;
67063;SDS011;58476;48.072;11.970;2023-08-21T09:51:06;21.17;;;5.47;;
67063;SDS011;58476;48.072;11.970;2023-08-21T09:53:32;26.45;;;5.65;;
67063;SDS011;58476;48.072;11.970;2023-08-21T09:55:57;16.92;;;4.97;;
67063;SDS011;58476;48.072;11.970;2023-08-21T09:58:25;21.55;;;5.95;;
67063;SDS011;58476;48.072;11.970;2023-08-21T10:00:51;31.67;;;5.05;;
67063;SDS011;58476;48.072;11.970;2023-08-21T10:03:21;19.45;;;4.93;;
67063;SDS011;58476;48.072;11.970;2023-08-21T10:05:47;20.58;;;5.20;;
67063;SDS011;58476;48.072;11.970;2023-08-21T10:08:13;14.63;;;5.13;;
67063;SDS011;58476;48.072;11.970;2023-08-21T10:10:41;15.73;;;4.35;;
67063;SDS011;58476;48.072;11.970;2023-08-21T10:13:07;18.65;;;4.70;;
67063;SDS011;58476;48.072;11.970;2023-08-21T10:15:33;17.92;;;4.32;;
67063;SDS011;58476;48.072;11.970;2023-08-21T10:20:46;17.92;;;4.68;;
67063;SDS011;58476;48.072;11.970;2023-08-21T10:23:23;17.33;;;4.40;;
67063;SDS011;58476;48.072;11.970;2023-08-21T10:25:53;16.38;;;4.60;;
67063;SDS011;58476;48.072;11.970;2023-08-21T10:28:22;17.02;;;4.70;;
67063;SDS011;58476;48.072;11.970;2023-08-21T10:30:48;11.50;;;4.50;;
67063;SDS011;58476;48.072;11.970;2023-08-21T10:33:13;11.07;;;4.30;;
67063;SDS011;58476;48.072;11.970;2023-08-21T10:35:39;15.38;;;4.35;;
67063;SDS011;58476;48.072;11.970;2023-08-21T10:38:10;12.15;;;4.13;;
67063;SDS011;58476;48.072;11.970;2023-08-21T10:40:40;16.58;;;4.20;;
67063;SDS011;58476;48.072;11.970;2023-08-21T10:46:06;14.52;;;4.30;;
67063;SDS011;58476;48.072;11.970;2023-08-21T10:48:32;15.80;;;4.53;;
67063;SDS011;58476;48.072;11.970;2023-08-21T10:50:59;19.02;;;4.35;;
67063;SDS011;58476;48.072;11.970;2023-08-21T10:53:26;9.73;;;4.13;;
67063;SDS011;58476;48.072;11.970;2023-08-21T10:55:53;9.02;;;3.80;;
67063;SDS011;58476;48.072;11.970;2023-08-21T10:58:19;13.57;;;4.93;;
67063;SDS011;58476;48.072;11.970;2023-08-21T11:00:44;11.02;;;4.10;;
67063;SDS011;58476;48.072;11.970;2023-08-21T11:03:09;12.05;;;3.88;;
67063;SDS011;58476;48.072;11.970;2023-08-21T11:05:34;11.48;;;3.72;;
67063;SDS011;58476;48.072;11.970;2023-08-21T11:08:00;12.05;;;4.50;;
67063;SDS011;58476;48.072;11.970;2023-08-21T11:10:27;11.23;;;4.03;;
67063;SDS011;58476;48.072;11.970;2023-08-21T11:12:56;11.40;;;3.97;;
67063;SDS011;58476;48.072;11.970;2023-08-21T11:15:22;10.82;;;4.00;;
67063;SDS011;58476;48.072;11.970;2023-08-21T11:18:00;12.15;;;3.67;;
67063;SDS011;58476;48.072;11.970;2023-08-21T11:20:28;10.85;;;4.10;;
67063;SDS011;58476;48.072;11.970;2023-08-21T11:22:57;10.40;;;3.85;;
67063;SDS011;58476;48.072;11.970;2023-08-21T11:25:27;12.02;;;3.90;;
67063;SDS011;58476;48.072;11.970;2023-08-21T11:27:52;15.52;;;4.07;;
67063;SDS011;58476;48.072;11.970;2023-08-21T11:30:18;12.55;;;3.92;;
67063;SDS011;58476;48.072;11.970;2023-08-21T11:32:44;7.65;;;3.75;;
67063;SDS011;58476;48.072;11.970;2023-08-21T11:35:09;11.93;;;3.95;;
67063;SDS011;58476;48.072;11.970;2023-08-21T11:37:34;8.95;;;4.20;;
67063;SDS011;58476;48.072;11.970;2023-08-21T11:40:08;13.40;;;4.25;;
67063;SDS011;58476;48.072;11.970;2023-08-21T11:42:33;10.05;;;4.00;;
67063;SDS011;58476;48.072;11.970;2023-08-21T11:44:59;12.50;;;3.75;;
67063;SDS011;58476;48.072;11.970;2023-08-21T11:47:32;9.50;;;4.18;;
67063;SDS011;58476;48.072;11.970;2023-08-21T11:50:06;10.63;;;3.60;;
67063;SDS011;58476;48.072;11.970;2023-08-21T11:52:32;9.68;;;3.55;;
67063;SDS011;58476;48.072;11.970;2023-08-21T11:54:58;7.43;;;3.58;;
67063;SDS011;58476;48.072;11.970;2023-08-21T11:57:24;9.43;;;3.55;;
67063;SDS011;58476;48.072;11.970;2023-08-21T11:59:55;9.40;;;3.30;;
67063;SDS011;58476;48.072;11.970;2023-08-21T12:02:24;6.22;;;3.33;;
67063;SDS011;58476;48.072;11.970;2023-08-21T12:04:52;7.68;;;3.42;;
67063;SDS011;58476;48.072;11.970;2023-08-21T12:07:28;6.32;;;3.42;;
67063;SDS011;58476;48.072;11.970;2023-08-21T12:09:53;7.88;;;4.00;;
67063;SDS011;58476;48.072;11.970;2023-08-21T12:12:19;9.25;;;3.50;;
67063;SDS011;58476;48.072;11.970;2023-08-21T12:14:44;10.23;;;3.90;;
67063;SDS011;58476;48.072;11.970;2023-08-21T12:17:09;5.30;;;3.60;;
67063;SDS011;58476;48.072;11.970;2023-08-21T12:19:35;6.28;;;3.47;;
67063;SDS011;58476;48.072;11.970;2023-08-21T12:22:00;12.32;;;3.70;;
67063;SDS011;58476;48.072;11.970;2023-08-21T12:24:25;6.07;;;3.25;;
67063;SDS011;58476;48.072;11.970;2023-08-21T12:26:51;7.72;;;3.70;;
67063;SDS011;58476;48.072;11.970;2023-08-21T12:29:16;12.60;;;4.57;;
67063;SDS011;58476;48.072;11.970;2023-08-21T12:31:42;8.68;;;3.65;;
67063;SDS011;58476;48.072;11.970;2023-08-21T12:34:07;7.95;;;3.80;;
67063;SDS011;58476;48.072;11.970;2023-08-21T12:36:35;6.15;;;3.50;;
67063;SDS011;58476;48.072;11.970;2023-08-21T12:39:01;7.45;;;3.58;;
67063;SDS011;58476;48.072;11.970;2023-08-21T12:41:26;6.35;;;3.95;;
67063;SDS011;58476;48.072;11.970;2023-08-21T12:43:52;5.68;;;3.30;;
67063;SDS011;58476;48.072;11.970;2023-08-21T12:46:17;6.72;;;3.50;;
67063;SDS011;58476;48.072;11.970;2023-08-21T12:48:42;8.63;;;3.28;;
67063;SDS011;58476;48.072;11.970;2023-08-21T12:51:08;6.10;;;3.20;;
67063;SDS011;58476;48.072;11.970;2023-08-21T12:53:34;8.25;;;3.40;;
67063;SDS011;58476;48.072;11.970;2023-08-21T12:55:59;6.72;;;3.40;;
67063;SDS011;58476;48.072;11.970;2023-08-21T12:58:25;6.80;;;3.30;;
67063;SDS011;58476;48.072;11.970;2023-08-21T13:00:51;7.03;;;3.10;;
67063;SDS011;58476;48.072;11.970;2023-08-21T13:03:16;5.22;;;3.17;;
67063;SDS011;58476;48.072;11.970;2023-08-21T13:05:41;9.88;;;3.40;;
67063;SDS011;58476;48.072;11.970;2023-08-21T13:08:07;6.43;;;3.65;;
67063;SDS011;58476;48.072;11.970;2023-08-21T13:10:32;8.27;;;3.40;;
67063;SDS011;58476;48.072;11.970;2023-08-21T13:12:57;8.40;;;3.65;;
67063;SDS011;58476;48.072;11.970;2023-08-21T13:15:23;9.98;;;4.20;;
67063;SDS011;58476;48.072;11.970;2023-08-21T13:17:48;6.72;;;3.13;;
67063;SDS011;58476;48.072;11.970;2023-08-21T13:20:13;7.78;;;3.40;;
67063;SDS011;58476;48.072;11.970;2023-08-21T13:25:10;13.25;;;3.60;;
67063;SDS011;58476;48.072;11.970;2023-08-21T13:27:35;13.02;;;3.65;;
67063;SDS011;58476;48.072;11.970;2023-08-21T13:30:01;12.25;;;3.60;;
67063;SDS011;58476;48.072;11.970;2023-08-21T13:32:26;14.13;;;3.83;;
67063;SDS011;58476;48.072;11.970;2023-08-21T13:34:51;20.30;;;4.55;;
67063;SDS011;58476;48.072;11.970;2023-08-21T13:37:18;10.90;;;3.72;;
67063;SDS011;58476;48.072;11.970;2023-08-21T13:39:43;14.20;;;3.60;;
67063;SDS011;58476;48.072;11.970;2023-08-21T13:42:08;13.93;;;4.65;;
67063;SDS011;58476;48.072;11.970;2023-08-21T13:44:34;13.77;;;3.72;;
67063;SDS011;58476;48.072;11.970;2023-08-21T13:46:59;12.90;;;4.30;;
67063;SDS011;58476;48.072;11.970;2023-08-21T13:49:24;17.63;;;3.70;;
67063;SDS011;58476;48.072;11.970;2023-08-21T13:51:50;19.63;;;3.80;;
67063;SDS011;58476;48.072;11.970;2023-08-21T13:54:15;23.90;;;4.28;;
67063;SDS011;58476;48.072;11.970;2023-08-21T13:56:40;10.48;;;3.63;;
67063;SDS011;58476;48.072;11.970;2023-08-21T13:59:06;14.18;;;3.63;;
67063;SDS011;58476;48.072;11.970;2023-08-21T14:01:31;15.68;;;4.00;;
67063;SDS011;58476;48.072;11.970;2023-08-21T14:03:56;16.88;;;3.97;;
67063;SDS011;58476;48.072;11.970;2023-08-21T14:06:22;15.88;;;4.03;;
67063;SDS011;58476;48.072;11.970;2023-08-21T14:08:47;19.25;;;4.32;;
67063;SDS011;58476;48.072;11.970;2023-08-21T14:11:12;17.45;;;4.10;;
67063;SDS011;58476;48.072;11.970;2023-08-21T14:13:38;11.60;;;3.65;;
67063;SDS011;58476;48.072;11.970;2023-08-21T14:16:03;10.55;;;3.55;;
67063;SDS011;58476;48.072;11.970;2023-08-21T14:18:29;19.52;;;4.25;;
67063;SDS011;58476;48.072;11.970;2023-08-21T14:20:54;15.50;;;3.92;;
67063;SDS011;58476;48.072;11.970;2023-08-21T14:23:19;16.88;;;4.10;;
67063;SDS011;58476;48.072;11.970;2023-08-21T14:25:45;22.95;;;4.38;;
67063;SDS011;58476;48.072;11.970;2023-08-21T14:28:10;13.30;;;3.47;;
67063;SDS011;58476;48.072;11.970;2023-08-21T14:30:35;13.20;;;4.00;;
67063;SDS011;58476;48.072;11.970;2023-08-21T14:33:01;13.05;;;3.42;;